createdAt,value
2022-08-05T00:01:36.124Z,52.68
2022-08-05T00:04:17.084Z,52.70
2022-08-05T00:06:47.217Z,52.71
2022-08-05T00:09:21.254Z,53.02
2022-08-05T00:11:56.029Z,53.02
2022-08-05T00:14:30.668Z,53.64
2022-08-05T00:17:01.948Z,54.41
2022-08-05T00:19:33.605Z,54.90
2022-08-05T00:22:12.173Z,55.39
2022-08-05T00:24:42.348Z,55.69
2022-08-05T00:27:16.489Z,56.58
2022-08-05T00:29:45.169Z,56.87
2022-08-05T00:32:15.288Z,57.31
2022-08-05T00:35:04.726Z,57.53
2022-08-05T00:37:51.358Z,58.17
2022-08-05T00:40:29.047Z,58.37
2022-08-05T00:42:59.454Z,58.41
2022-08-05T00:45:38.446Z,58.82
2022-08-05T00:48:10.062Z,58.81
2022-08-05T00:50:39.238Z,58.85
2022-08-05T00:53:44.739Z,59.17
2022-08-05T00:55:59.222Z,59.09
2022-08-05T00:58:28.318Z,59.25
2022-08-05T01:00:56.755Z,59.48
2022-08-05T01:03:30.843Z,59.47
2022-08-05T01:06:02.607Z,59.75
2022-08-05T01:08:42.701Z,59.88
2022-08-05T01:11:33.697Z,60.18
2022-08-05T01:14:15.452Z,60.53
2022-08-05T01:16:50.316Z,60.85
2022-08-05T01:20:02.026Z,61.13
2022-08-05T01:22:47.023Z,61.17
2022-08-05T01:25:53.303Z,61.15
2022-08-05T01:28:32.953Z,61.05
2022-08-05T01:31:06.129Z,61.20
2022-08-05T01:33:49.253Z,60.84
2022-08-05T01:36:28.397Z,60.27
2022-08-05T01:39:01.060Z,60.64
2022-08-05T01:41:33.342Z,60.99
2022-08-05T01:44:04.080Z,61.12
2022-08-05T01:46:42.208Z,61.06
2022-08-05T01:49:24.417Z,59.76
2022-08-05T01:51:58.661Z,61.15
2022-08-05T01:54:31.207Z,61.01
2022-08-05T01:58:11.438Z,59.70
2022-08-05T01:59:53.945Z,58.39
2022-08-05T02:02:28.538Z,58.66
2022-08-05T02:05:03.111Z,59.16
2022-08-05T02:07:32.585Z,58.94
2022-08-05T02:10:02.395Z,59.20
2022-08-05T02:12:36.001Z,59.72
2022-08-05T02:15:12.377Z,60.05
2022-08-05T02:18:30.887Z,60.68
2022-08-05T02:20:41.439Z,61.55
2022-08-05T02:23:13.490Z,61.98
2022-08-05T02:25:49.761Z,62.33
2022-08-05T02:28:28.616Z,62.43
2022-08-05T02:31:04.142Z,62.24
2022-08-05T02:33:38.280Z,62.58
2022-08-05T02:36:13.483Z,62.52
2022-08-05T02:38:53.386Z,63.08
2022-08-05T02:41:28.561Z,63.16
2022-08-05T02:44:13.301Z,63.57
2022-08-05T02:46:58.880Z,63.33
2022-08-05T02:49:36.448Z,63.13
2022-08-05T02:52:08.750Z,62.95
2022-08-05T02:54:41.052Z,62.84
2022-08-05T02:58:10.618Z,63.21
2022-08-05T03:00:03.061Z,63.48
2022-08-05T03:02:36.409Z,63.06
2022-08-05T03:05:06.619Z,62.52
2022-08-05T03:08:00.881Z,61.89
2022-08-05T03:10:25.794Z,62.54
2022-08-05T03:12:55.155Z,63.07
2022-08-05T03:15:24.336Z,63.76
2022-08-05T03:17:57.536Z,64.50
2022-08-05T03:20:26.818Z,64.96
2022-08-05T03:22:57.209Z,65.43
2022-08-05T03:25:32.906Z,65.70
2022-08-05T03:28:18.528Z,65.66
2022-08-05T03:30:50.865Z,65.54
2022-08-05T03:33:20.906Z,65.24
2022-08-05T03:35:50.379Z,65.25
2022-08-05T03:38:32.862Z,65.14
2022-08-05T03:41:08.239Z,65.39
2022-08-05T03:44:08.040Z,65.13
2022-08-05T03:46:30.005Z,64.68
2022-08-05T03:49:02.267Z,64.32
2022-08-05T03:52:38.087Z,64.03
2022-08-05T03:55:50.982Z,63.59
2022-08-05T03:57:41.150Z,63.31
2022-08-05T04:00:15.928Z,62.61
2022-08-05T04:02:57.724Z,62.95
2022-08-05T04:05:33.681Z,62.35
2022-08-05T04:08:05.730Z,61.80
2022-08-05T04:10:45.359Z,61.09
2022-08-05T04:13:13.947Z,60.53
2022-08-05T04:15:52.771Z,60.68
2022-08-05T04:18:32.292Z,60.48
2022-08-05T04:21:07.989Z,59.44
2022-08-05T04:23:57.296Z,58.60
2022-08-05T04:26:32.351Z,58.53
2022-08-05T04:29:01.147Z,57.22
2022-08-05T04:31:38.481Z,57.35
2022-08-05T04:34:24.495Z,56.11
2022-08-05T04:36:58.336Z,55.25
2022-08-05T04:39:27.398Z,55.14
2022-08-05T04:41:56.275Z,55.25
2022-08-05T04:44:29.692Z,54.72
2022-08-05T04:46:59.555Z,54.96
2022-08-05T04:50:02.046Z,54.99
2022-08-05T04:52:18.610Z,53.98
2022-08-05T04:54:47.334Z,53.83
2022-08-05T04:57:17.723Z,53.38
2022-08-05T04:59:48.077Z,53.16
2022-08-05T05:02:37.197Z,52.58
2022-08-05T05:05:16.994Z,52.29
2022-08-05T05:07:56.457Z,51.85
2022-08-05T05:10:29.518Z,51.77
2022-08-05T05:12:58.075Z,51.14
2022-08-05T05:15:56.762Z,51.38
2022-08-05T05:18:31.610Z,51.19
2022-08-05T05:21:03.800Z,49.63
2022-08-05T05:24:01.705Z,49.80
2022-08-05T05:26:28.753Z,49.47
2022-08-05T05:29:02.376Z,49.28
2022-08-05T05:34:02.167Z,47.82
2022-08-05T05:36:31.692Z,47.29
2022-08-05T05:39:03.802Z,46.41
2022-08-05T05:41:40.706Z,45.71
2022-08-05T05:44:26.979Z,45.83
2022-08-05T05:46:58.577Z,45.06
2022-08-05T05:49:33.084Z,44.77
2022-08-05T05:52:01.509Z,45.27
2022-08-05T05:54:51.102Z,44.49
2022-08-05T05:57:20.366Z,43.72
2022-08-05T05:59:49.134Z,42.18
2022-08-05T06:02:27.939Z,42.38
2022-08-05T06:05:01.231Z,42.41
2022-08-05T06:07:42.024Z,42.30
2022-08-05T06:10:12.658Z,41.97
2022-08-05T06:12:42.357Z,42.26
2022-08-05T06:15:23.554Z,43.32
2022-08-05T06:17:54.717Z,43.32
2022-08-05T06:20:23.252Z,43.42
2022-08-05T06:22:51.348Z,43.94
2022-08-05T06:25:25.012Z,44.09
2022-08-05T06:28:20.976Z,44.17
2022-08-05T06:30:50.021Z,43.99
2022-08-05T06:33:19.203Z,44.20
2022-08-05T06:36:08.056Z,44.50
2022-08-05T06:38:37.151Z,44.44
2022-08-05T06:41:08.225Z,44.30
2022-08-05T06:43:57.742Z,44.84
2022-08-05T06:46:30.341Z,44.43
2022-08-05T06:48:59.922Z,44.64
2022-08-05T06:51:31.005Z,45.16
2022-08-05T06:54:00.370Z,44.99
2022-08-05T06:56:34.555Z,44.82
2022-08-05T06:59:03.806Z,45.13
2022-08-05T07:01:41.520Z,44.63
2022-08-05T07:04:11.178Z,45.07
2022-08-05T07:06:42.364Z,45.72
2022-08-05T07:09:10.475Z,46.26
2022-08-05T07:11:40.130Z,44.88
2022-08-05T07:14:29.406Z,45.43
2022-08-05T07:17:59.179Z,44.20
2022-08-05T07:20:31.195Z,44.14
2022-08-05T07:22:39.808Z,43.64
2022-08-05T07:25:23.377Z,43.63
2022-08-05T07:28:05.871Z,43.73
2022-08-05T07:30:39.707Z,43.44
2022-08-05T07:33:16.636Z,42.86
2022-08-05T07:36:04.136Z,43.09
2022-08-05T07:38:42.772Z,43.23
2022-08-05T07:42:08.709Z,42.44
2022-08-05T07:44:05.066Z,42.53
2022-08-05T07:46:34.597Z,42.31
2022-08-05T07:49:06.344Z,41.87
2022-08-05T07:51:41.158Z,41.54
2022-08-05T07:54:30.842Z,41.45
2022-08-05T07:57:17.765Z,41.16
2022-08-05T07:59:49.628Z,40.50
2022-08-05T08:02:18.433Z,40.48
2022-08-05T08:04:49.243Z,40.26
2022-08-05T08:07:21.962Z,39.74
2022-08-05T08:09:54.899Z,39.85
2022-08-05T08:12:35.430Z,38.89
2022-08-05T08:15:15.404Z,38.85
2022-08-05T08:17:49.748Z,38.90
2022-08-05T08:20:45.140Z,38.60
2022-08-05T08:24:00.488Z,38.62
2022-08-05T08:26:00.808Z,38.62
2022-08-05T08:28:36.547Z,38.58
2022-08-05T08:31:07.975Z,38.43
2022-08-05T08:33:37.983Z,38.98
2022-08-05T08:38:56.909Z,37.21
2022-08-05T08:41:51.737Z,36.90
2022-08-05T08:45:18.348Z,36.46
2022-08-05T08:47:21.841Z,36.40
2022-08-05T08:50:06.103Z,36.12
2022-08-05T08:52:51.806Z,35.14
2022-08-05T08:56:02.948Z,35.10
2022-08-05T08:58:13.106Z,35.19
2022-08-05T09:00:44.460Z,35.49
2022-08-05T09:03:16.033Z,35.19
2022-08-05T09:06:08.487Z,35.63
2022-08-05T09:08:40.196Z,34.84
2022-08-05T09:11:13.598Z,33.23
2022-08-05T09:14:10.203Z,32.59
2022-08-05T09:16:31.875Z,32.69
2022-08-05T09:19:01.703Z,32.04
2022-08-05T09:22:22.001Z,32.06
2022-08-05T09:24:24.190Z,32.90
2022-08-05T09:26:54.403Z,32.00
2022-08-05T09:29:30.713Z,31.37
2022-08-05T09:32:51.841Z,31.44
2022-08-05T09:34:59.113Z,31.28
2022-08-05T09:38:16.594Z,31.43
2022-08-05T09:40:32.583Z,31.15
2022-08-05T09:43:01.925Z,30.84
2022-08-05T09:46:06.524Z,31.07
2022-08-05T09:48:28.448Z,30.17
2022-08-05T09:51:01.429Z,30.51
2022-08-05T09:53:54.993Z,30.54
2022-08-05T09:56:26.614Z,30.45
2022-08-05T09:58:59.678Z,29.85
2022-08-05T10:01:32.372Z,29.38
2022-08-05T10:04:03.768Z,29.53
2022-08-05T10:06:34.348Z,30.08
2022-08-05T10:09:27.568Z,29.94
2022-08-05T10:11:56.955Z,29.29
2022-08-05T10:14:30.267Z,29.25
2022-08-05T10:17:37.239Z,28.68
2022-08-05T10:20:09.949Z,28.20
2022-08-05T10:22:43.086Z,27.93
2022-08-05T10:25:20.277Z,27.70
2022-08-05T10:28:09.291Z,27.74
2022-08-05T10:31:21.048Z,28.52
2022-08-05T10:33:29.644Z,28.38
2022-08-05T10:36:05.353Z,28.44
2022-08-05T10:38:36.613Z,28.16
2022-08-05T10:41:15.116Z,28.30
2022-08-05T10:43:59.271Z,28.35
2022-08-05T10:46:45.041Z,28.52
2022-08-05T10:49:16.432Z,28.49
2022-08-05T10:51:58.331Z,28.52
2022-08-05T10:54:56.205Z,29.21
2022-08-05T10:57:31.843Z,29.25
2022-08-05T11:00:20.022Z,28.26
2022-08-05T11:03:23.513Z,28.54
2022-08-05T11:06:16.134Z,28.71
2022-08-05T11:09:39.138Z,28.56
2022-08-05T11:12:50.523Z,28.50
2022-08-05T11:16:00.498Z,28.07
2022-08-05T11:18:27.466Z,28.27
2022-08-05T11:20:59.043Z,27.98
2022-08-05T11:24:02.306Z,28.13
2022-08-05T11:26:28.404Z,27.90
2022-08-05T11:29:11.778Z,27.15
2022-08-05T11:31:56.929Z,27.91
2022-08-05T11:34:38.965Z,27.67
2022-08-05T11:38:36.460Z,27.51
2022-08-05T11:40:02.859Z,26.67
2022-08-05T11:42:37.782Z,27.22
2022-08-05T11:45:14.258Z,27.07
2022-08-05T11:47:54.889Z,26.93
2022-08-05T11:50:23.611Z,26.49
2022-08-05T11:52:57.679Z,25.88
2022-08-05T11:55:32.062Z,25.41
2022-08-05T11:58:10.521Z,25.56
2022-08-05T12:00:44.138Z,26.00
2022-08-05T12:03:28.859Z,25.88
2022-08-05T12:06:03.060Z,25.47
2022-08-05T12:08:32.868Z,25.89
2022-08-05T12:11:05.730Z,25.63
2022-08-05T12:13:48.478Z,26.56
2022-08-05T12:16:26.976Z,27.33
2022-08-05T12:18:56.677Z,27.61
2022-08-05T12:21:29.929Z,27.34
2022-08-05T12:24:04.890Z,26.98
2022-08-05T12:26:36.278Z,26.37
2022-08-05T12:29:09.909Z,26.71
2022-08-05T12:31:53.448Z,26.33
2022-08-05T12:34:26.859Z,26.77
2022-08-05T12:36:57.683Z,26.31
2022-08-05T12:39:34.657Z,27.11
2022-08-05T12:42:14.292Z,26.80
2022-08-05T12:44:44.840Z,25.62
2022-08-05T12:47:17.215Z,26.09
2022-08-05T12:50:03.936Z,26.86
2022-08-05T12:52:38.655Z,27.62
2022-08-05T12:55:22.036Z,27.35
2022-08-05T12:58:51.350Z,26.97
2022-08-05T13:02:03.767Z,26.77
2022-08-05T13:03:41.354Z,25.80
2022-08-05T13:06:14.200Z,26.06
2022-08-05T13:08:50.754Z,26.66
2022-08-05T13:11:47.058Z,26.83
2022-08-05T13:14:19.503Z,26.70
2022-08-05T13:16:57.571Z,26.02
2022-08-05T13:19:51.073Z,26.36
2022-08-05T13:22:29.120Z,25.97
2022-08-05T13:25:00.961Z,26.85
2022-08-05T13:27:40.929Z,26.88
2022-08-05T13:30:35.144Z,27.41
2022-08-05T13:33:01.285Z,26.42
2022-08-05T13:35:47.449Z,25.56
2022-08-05T13:38:30.413Z,25.73
2022-08-05T13:41:02.765Z,25.71
2022-08-05T13:43:44.046Z,25.73
2022-08-05T13:46:35.723Z,25.73
2022-08-05T13:49:11.546Z,25.88
2022-08-05T13:51:46.199Z,25.82
2022-08-05T13:54:16.018Z,26.26
2022-08-05T13:56:51.397Z,24.98
2022-08-05T13:59:23.743Z,25.18
2022-08-05T14:01:56.594Z,24.46
2022-08-05T14:04:49.858Z,24.44
2022-08-05T14:07:55.400Z,24.69
2022-08-05T14:10:12.650Z,24.75
2022-08-05T14:12:42.703Z,24.44
2022-08-05T14:16:06.853Z,25.92
2022-08-05T14:18:00.822Z,25.49
2022-08-05T14:20:29.947Z,25.58
2022-08-05T14:23:00.601Z,25.80
2022-08-05T14:25:30.738Z,25.44
2022-08-05T14:27:59.080Z,25.61
2022-08-05T14:30:27.785Z,25.49
2022-08-05T14:32:57.059Z,25.81
2022-08-05T14:35:49.995Z,25.59
2022-08-05T14:38:32.426Z,25.22
2022-08-05T14:41:04.447Z,25.29
2022-08-05T14:43:59.215Z,25.47
2022-08-05T14:46:28.388Z,25.22
2022-08-05T14:48:58.874Z,25.47
2022-08-05T14:51:30.766Z,24.78
2022-08-05T14:54:26.306Z,24.92
2022-08-05T14:56:49.428Z,25.44
2022-08-05T14:59:21.181Z,25.93
2022-08-05T15:01:49.973Z,25.16
2022-08-05T15:04:20.431Z,24.76
2022-08-05T15:06:49.882Z,24.88
2022-08-05T15:09:54.039Z,24.43
2022-08-05T15:12:11.500Z,24.32
2022-08-05T15:14:49.534Z,24.42
2022-08-05T15:17:46.502Z,24.46
2022-08-05T15:20:18.605Z,25.04
2022-08-05T15:22:54.113Z,25.30
2022-08-05T15:25:40.833Z,24.65
2022-08-05T15:28:16.161Z,25.61
2022-08-05T15:30:45.703Z,26.19
2022-08-05T15:33:56.403Z,26.22
2022-08-05T15:36:04.231Z,25.94
2022-08-05T15:38:36.649Z,25.93
2022-08-05T15:41:20.860Z,26.01
2022-08-05T15:43:52.113Z,25.93
2022-08-05T15:46:24.394Z,26.04
2022-08-05T15:49:00.950Z,26.62
2022-08-05T15:52:12.494Z,27.11
2022-08-05T15:54:34.491Z,26.69
2022-08-05T15:57:07.510Z,25.98
2022-08-05T15:59:36.386Z,26.02
2022-08-05T16:02:14.257Z,25.83
2022-08-05T16:04:54.779Z,26.45
2022-08-05T16:07:23.045Z,26.34
2022-08-05T16:09:51.338Z,26.23
2022-08-05T16:12:23.811Z,26.40
2022-08-05T16:14:52.164Z,26.94
2022-08-05T16:17:20.439Z,26.71
2022-08-05T16:20:04.221Z,26.41
2022-08-05T16:22:37.065Z,27.04
2022-08-05T16:25:09.602Z,27.17
2022-08-05T16:28:00.152Z,27.17
2022-08-05T16:30:30.798Z,27.70
2022-08-05T16:33:00.996Z,28.13
2022-08-05T16:35:30.819Z,28.06
2022-08-05T16:38:03.627Z,28.15
2022-08-05T16:40:51.858Z,28.19
2022-08-05T16:43:31.639Z,28.20
2022-08-05T16:46:07.098Z,27.90
2022-08-05T16:48:49.840Z,27.96
2022-08-05T16:51:17.930Z,28.13
2022-08-05T16:54:03.913Z,28.05
2022-08-05T16:56:34.929Z,28.81
2022-08-05T16:59:09.064Z,29.14
2022-08-05T17:01:53.576Z,28.81
2022-08-05T17:04:23.850Z,29.54
2022-08-05T17:06:55.676Z,29.23
2022-08-05T17:09:28.061Z,29.01
2022-08-05T17:12:00.026Z,29.47
2022-08-05T17:14:37.495Z,28.74
2022-08-05T17:17:14.531Z,28.92
2022-08-05T17:19:46.044Z,29.39
2022-08-05T17:22:24.640Z,29.75
2022-08-05T17:24:57.042Z,30.10
2022-08-05T17:27:33.635Z,30.29
2022-08-05T17:30:12.202Z,30.62
2022-08-05T17:32:47.863Z,30.48
2022-08-05T17:35:21.010Z,30.66
2022-08-05T17:37:50.577Z,29.90
2022-08-05T17:40:22.550Z,30.03
2022-08-05T17:42:52.820Z,30.02
2022-08-05T17:45:29.476Z,30.36
2022-08-05T17:47:57.864Z,30.34
2022-08-05T17:50:28.190Z,30.59
2022-08-05T17:52:59.087Z,30.84
2022-08-05T17:55:37.316Z,31.20
2022-08-05T17:58:11.097Z,31.50
2022-08-05T18:00:47.239Z,31.59
2022-08-05T18:06:11.873Z,31.99
2022-08-05T18:08:44.423Z,32.17
2022-08-05T18:11:23.752Z,32.34
2022-08-05T18:13:53.145Z,32.35
2022-08-05T18:16:22.775Z,32.66
2022-08-05T18:18:50.999Z,32.80
2022-08-05T18:21:22.745Z,32.83
2022-08-05T18:23:54.353Z,33.33
2022-08-05T18:26:27.813Z,33.35
2022-08-05T18:28:58.798Z,33.53
2022-08-05T18:31:32.930Z,33.83
2022-08-05T18:34:05.939Z,33.89
2022-08-05T18:36:36.353Z,34.08
2022-08-05T18:39:09.803Z,34.25
2022-08-05T18:42:01.203Z,34.55
2022-08-05T18:44:35.370Z,35.06
2022-08-05T18:47:22.776Z,35.33
2022-08-05T18:50:11.966Z,35.76
2022-08-05T18:52:50.555Z,36.14
2022-08-05T18:55:20.312Z,36.81
2022-08-05T18:57:53.072Z,36.74
2022-08-05T19:00:27.158Z,37.18
2022-08-05T19:03:04.093Z,37.06
2022-08-05T19:06:13.166Z,37.39
2022-08-05T19:08:30.529Z,37.46
2022-08-05T19:11:04.571Z,37.27
2022-08-05T19:13:35.614Z,37.21
2022-08-05T19:16:04.950Z,37.53
2022-08-05T19:19:12.951Z,38.12
2022-08-05T19:21:41.396Z,37.98
2022-08-05T19:24:12.976Z,38.59
2022-08-05T19:26:54.904Z,38.51
2022-08-05T19:29:26.761Z,38.78
2022-08-05T19:32:05.384Z,38.88
2022-08-05T19:34:38.214Z,38.89
2022-08-05T19:37:06.852Z,38.93
2022-08-05T19:39:45.897Z,39.49
2022-08-05T19:42:34.962Z,39.46
2022-08-05T19:45:05.975Z,39.09
2022-08-05T19:47:34.775Z,39.25
2022-08-05T19:50:11.794Z,39.21
2022-08-05T19:52:40.953Z,39.48
2022-08-05T19:56:14.497Z,39.38
2022-08-05T19:58:10.364Z,39.72
2022-08-05T20:00:48.916Z,39.88
2022-08-05T20:03:17.096Z,39.84
2022-08-05T20:05:51.165Z,40.00
2022-08-05T20:08:20.386Z,40.25
2022-08-05T20:10:52.866Z,40.67
2022-08-05T20:13:54.582Z,40.82
2022-08-05T20:16:09.965Z,40.43
2022-08-05T20:18:39.135Z,41.12
2022-08-05T20:21:09.190Z,41.20
2022-08-05T20:23:50.278Z,41.35
2022-08-05T20:26:23.408Z,41.55
2022-08-05T20:28:55.926Z,41.04
2022-08-05T20:31:37.611Z,41.24
2022-08-05T20:34:14.431Z,41.13
2022-08-05T20:36:44.711Z,41.31
2022-08-05T20:39:13.670Z,41.65
2022-08-05T20:41:46.706Z,41.62
2022-08-05T20:44:29.098Z,41.80
2022-08-05T20:46:59.786Z,41.96
2022-08-05T20:49:28.559Z,41.85
2022-08-05T20:51:58.779Z,41.76
2022-08-05T20:54:55.087Z,41.59
2022-08-05T20:57:24.894Z,41.90
2022-08-05T21:00:20.738Z,41.72
2022-08-05T21:02:56.942Z,41.57
2022-08-05T21:05:25.712Z,41.52
2022-08-05T21:08:07.885Z,42.10
2022-08-05T21:10:36.338Z,41.90
2022-08-05T21:13:10.371Z,42.46
2022-08-05T21:15:46.116Z,42.63
2022-08-05T21:18:19.806Z,42.63
2022-08-05T21:20:53.052Z,43.01
2022-08-05T21:23:22.858Z,42.78
2022-08-05T21:25:51.020Z,43.08
2022-08-05T21:28:23.811Z,43.06
2022-08-05T21:30:52.182Z,43.12
2022-08-05T21:33:22.022Z,43.21
2022-08-05T21:35:58.472Z,43.53
2022-08-05T21:38:28.570Z,43.89
2022-08-05T21:40:57.327Z,43.91
2022-08-05T21:43:26.078Z,44.06
2022-08-05T21:45:57.854Z,44.03
2022-08-05T21:48:28.974Z,44.94
2022-08-05T21:51:00.101Z,45.46
2022-08-05T21:53:29.620Z,45.70
2022-08-05T21:56:09.944Z,46.03
2022-08-05T21:58:54.827Z,46.03
2022-08-05T22:01:26.246Z,45.86
2022-08-05T22:03:54.501Z,45.69
2022-08-05T22:06:35.301Z,46.12
2022-08-05T22:09:14.589Z,46.56
2022-08-05T22:11:46.909Z,46.28
2022-08-05T22:14:37.258Z,46.85
2022-08-05T22:17:06.635Z,47.37
2022-08-05T22:20:01.193Z,47.61
2022-08-05T22:22:28.254Z,47.97
2022-08-05T22:25:27.369Z,48.13
2022-08-05T22:28:08.639Z,48.55
2022-08-05T22:30:44.011Z,49.16
2022-08-05T22:33:57.820Z,49.39
2022-08-05T22:36:14.594Z,49.70
2022-08-05T22:38:48.620Z,50.29
2022-08-05T22:41:26.338Z,49.82
2022-08-05T22:44:08.696Z,50.12
2022-08-05T22:46:39.945Z,50.34
2022-08-05T22:49:23.139Z,50.19
2022-08-05T22:52:05.388Z,50.34
2022-08-05T22:54:37.178Z,51.44
2022-08-05T22:57:08.736Z,51.75
2022-08-05T22:59:46.114Z,51.66
2022-08-05T23:02:26.902Z,52.25
2022-08-05T23:05:02.047Z,52.54
2022-08-05T23:07:44.770Z,52.47
2022-08-05T23:10:20.174Z,52.87
2022-08-05T23:12:54.907Z,53.47
2022-08-05T23:15:26.931Z,53.92
2022-08-05T23:18:00.485Z,54.01
2022-08-05T23:20:32.524Z,54.34
2022-08-05T23:23:03.490Z,54.42
2022-08-05T23:25:51.365Z,54.71
2022-08-05T23:28:29.041Z,54.79
2022-08-05T23:31:16.100Z,55.04
2022-08-05T23:34:03.966Z,55.14
2022-08-05T23:36:39.698Z,55.38
2022-08-05T23:39:17.630Z,55.39
2022-08-05T23:41:52.020Z,55.73
2022-08-05T23:44:27.868Z,56.13
2022-08-05T23:47:00.603Z,55.89
2022-08-05T23:49:35.693Z,56.20
2022-08-05T23:52:22.258Z,56.29
2022-08-05T23:54:54.564Z,56.75
2022-08-05T23:57:24.815Z,56.31
